Bookmark and Share
Track history (hours):
 

Snav Lazio

Last reported at 2014-Apr-18 20:33 UTC. Time now 2014-Apr-19 02:13 UTC.
Position N 40°22' E 014°05'.

Length 162 m; draft 6 m.

Type: Passenger vessel. MMSI: 247163100.

NotesDate/timePositionNaut miles runAvg speedWind from/ knotsBaromVisibWave heightAir tempDewpointWater temp
2014-Apr-18 20:33N 40°22' E 014°05'1918.7
2014-Apr-18 19:33N 40°40' E 014°12'21 0.5
2014-Apr-16 20:34N 40°20' E 014°03'1918.6
2014-Apr-16 19:34N 40°38' E 014°10'13 0.9
2014-Apr-16 05:14N 40°50' E 014°15'6 3.9
2014-Apr-16 03:33N 40°44' E 014°14'1818.2
2014-Apr-16 02:33N 40°27' E 014°07'10 0.3
2014-Apr-14 19:34N 40°17' E 014°04'1717.4
2014-Apr-14 18:34N 40°34' E 014°09'1716.6
2014-Apr-14 17:34N 40°50' E 014°17'35 0.8
2014-Apr-12 20:28N 40°16' E 014°03'1517.2
2014-Apr-12 19:33N 40°31' E 014°09'1717.2
2014-Apr-12 18:33N 40°47' E 014°16'3 0.2
2014-Apr-12 03:34N 40°44' E 014°14'1818.0
2014-Apr-12 02:33N 40°27' E 014°06'118 4.9
2014-Apr-11 02:24N 38°32' E 013°32'1618.6
2014-Apr-11 01:33N 38°48' E 013°36'5518.3
2014-Apr-10 22:33N 39°41' E 013°52'1818.4
2014-Apr-10 21:33N 39°59' E 013°58'1817.7
2014-Apr-10 20:32N 40°16' E 014°03'1717.3
2014-Apr-10 19:33N 40°33' E 014°09'1717.0
2014-Apr-10 18:34N 40°49' E 014°17'  

Dump ship's entire track history

sailing weather and tide predictions

Snav Lazio — IBUH — position and weather